Anatife — FGE8389 — position and weather

sailwx.info

Track history (hours):
 
Tides and Currents Weather Stations Pressure Air Temp Water Temp Dewpoint Dewpoint Depression Visibility Wind Speed Wind Dir Waves Ship Positions

Anatife

Last reported at 2016-Aug-23 19:33 UTC. Time now 2016-Aug-27 04:40 UTC.
Position N 47°18' W 002°05'.

Length 41 m; draft 2 m.

Type: Tanker. MMSI: 227681520.

Date/timePositionNaut miles runAvg speedWind from/ knotsBaromVisibWave heightAir tempDewpointWater temp
2016-Aug-23 19:33N 47°18' W 002°05'0 0.3
2016-Aug-23 18:33N 47°18' W 002°05'9 9.1
2016-Aug-23 17:33N 47°13' W 002°16'10 9.3
2016-Aug-23 16:27N 47°05' W 002°25'910.0
2016-Aug-23 15:33N 46°56' W 002°28'13 1.7
2016-Aug-23 07:30N 46°44' W 002°21'0 0.0
2016-Aug-23 06:33N 46°44' W 002°21'0 0.0
2016-Aug-23 05:33N 46°44' W 002°21'0 0.0
2016-Aug-23 04:33N 46°44' W 002°21'0 0.0
2016-Aug-23 03:29N 46°44' W 002°21'0 0.0
2016-Aug-22 22:29N 46°44' W 002°21'7 7.8
2016-Aug-22 21:33N 46°50' W 002°25'9 8.9
2016-Aug-22 20:33N 46°59' W 002°28'9 9.2
2016-Aug-22 19:33N 47°07' W 002°21'8 8.4
2016-Aug-22 18:33N 47°14' W 002°15'7 7.3
2016-Aug-22 17:33N 47°18' W 002°05'0 0.4
2016-Aug-22 16:33N 47°18' W 002°05'0 0.0
2016-Aug-22 15:33N 47°18' W 002°05'0 0.0
2016-Aug-22 14:33N 47°18' W 002°05'0 0.0
2016-Aug-22 13:33N 47°18' W 002°05'0 0.0
2016-Aug-22 12:33N 47°18' W 002°05'0 0.0
2016-Aug-22 11:33N 47°18' W 002°05'0 0.0
2016-Aug-22 10:33N 47°18' W 002°05'0 0.0
2016-Aug-22 09:33N 47°18' W 002°05'0 0.0
2016-Aug-22 08:33N 47°18' W 002°05'  
2016-Aug-19 07:04N 47°18' W 002°05'0 0.0
2016-Aug-19 06:34N 47°18' W 002°05'0 0.0
2016-Aug-19 05:34N 47°18' W 002°05'0 0.0
2016-Aug-19 04:34N 47°18' W 002°05'0 0.0
2016-Aug-19 03:33N 47°18' W 002°05'0 0.0
2016-Aug-19 02:33N 47°18' W 002°05'0 0.0
2016-Aug-19 01:34N 47°18' W 002°05'0 0.0
2016-Aug-19 00:33N 47°18' W 002°05'0 0.0
2016-Aug-18 23:34N 47°18' W 002°05'0 0.0
2016-Aug-18 22:33N 47°18' W 002°05'0 0.0
2016-Aug-18 21:33N 47°18' W 002°05'0 0.0
2016-Aug-18 20:33N 47°18' W 002°05'0 0.0
2016-Aug-18 19:33N 47°18' W 002°05'1 1.3
2016-Aug-18 18:34N 47°18' W 002°07'8 7.9
2016-Aug-18 17:31N 47°13' W 002°16'9 9.1
2016-Aug-18 16:31N 47°14' W 002°30'9 9.3
2016-Aug-18 15:33N 47°15' W 002°43'1010.0
2016-Aug-18 14:34N 47°18' W 002°57'9 9.0
2016-Aug-18 13:33N 47°21' W 003°09'0 0.0
2016-Aug-18 12:09N 47°21' W 003°09'0 0.0
2016-Aug-18 11:30N 47°21' W 003°09'0 0.0
2016-Aug-18 10:27N 47°21' W 003°09'0 0.0
2016-Aug-18 09:21N 47°21' W 003°09'0 0.0
2016-Aug-18 08:30N 47°21' W 003°09'0 0.0
2016-Aug-18 07:27N 47°21' W 003°09'0 0.0
2016-Aug-18 06:33N 47°21' W 003°09'0 0.0
2016-Aug-18 05:33N 47°21' W 003°09'1 1.3
2016-Aug-18 04:33N 47°20' W 003°08'1 0.9
2016-Aug-18 03:33N 47°20' W 003°06'5 4.8
2016-Aug-18 02:34N 47°19' W 002°60'6 6.3
2016-Aug-18 01:34N 47°17' W 002°51'6 6.2
2016-Aug-18 00:34N 47°15' W 002°42'6 6.1
2016-Aug-17 23:34N 47°14' W 002°33'7 6.6
2016-Aug-17 22:33N 47°13' W 002°24'14 3.4
2016-Aug-17 18:30N 47°18' W 002°05'0 0.0
2016-Aug-17 17:09N 47°18' W 002°05'0 0.0
2016-Aug-17 16:32N 47°18' W 002°05'0 0.0
2016-Aug-17 15:33N 47°18' W 002°05'0 0.0
2016-Aug-17 14:33N 47°18' W 002°05'0 0.0
2016-Aug-17 13:33N 47°18' W 002°05'0 0.0
2016-Aug-17 12:27N 47°18' W 002°05'0 0.0
2016-Aug-17 11:33N 47°18' W 002°05'0 0.0
2016-Aug-17 10:28N 47°18' W 002°05'0 0.0
2016-Aug-17 09:33N 47°18' W 002°05'0 0.0
2016-Aug-17 08:34N 47°18' W 002°05'0 0.0
2016-Aug-17 07:34N 47°18' W 002°05'0 0.0
2016-Aug-17 06:33N 47°18' W 002°05'0 0.0
2016-Aug-17 05:33N 47°18' W 002°05'  
Track history (hours):
 
Tides and Currents Weather Stations Pressure Air Temp Water Temp Dewpoint Dewpoint Depression Visibility Wind Speed Wind Dir Waves Ship Positions

Anatife

Last reported at 2016-Aug-23 19:33 UTC. Time now 2016-Aug-27 04:40 UTC.
Position N 47°18' W 002°05'.

Length 41 m; draft 2 m.

Type: Tanker. MMSI: 227681520.

Date/timePositionNaut miles runAvg speedWind from/ knotsBaromVisibWave heightAir tempDewpointWater temp
2016-Aug-23 19:33N 47°18' W 002°05'0 0.3
2016-Aug-23 18:33N 47°18' W 002°05'9 9.1
2016-Aug-23 17:33N 47°13' W 002°16'10 9.3
2016-Aug-23 16:27N 47°05' W 002°25'910.0
2016-Aug-23 15:33N 46°56' W 002°28'13 1.7
2016-Aug-23 07:30N 46°44' W 002°21'0 0.0
2016-Aug-23 06:33N 46°44' W 002°21'0 0.0
2016-Aug-23 05:33N 46°44' W 002°21'0 0.0
2016-Aug-23 04:33N 46°44' W 002°21'0 0.0
2016-Aug-23 03:29N 46°44' W 002°21'0 0.0
2016-Aug-22 22:29N 46°44' W 002°21'7 7.8
2016-Aug-22 21:33N 46°50' W 002°25'9 8.9
2016-Aug-22 20:33N 46°59' W 002°28'9 9.2
2016-Aug-22 19:33N 47°07' W 002°21'8 8.4
2016-Aug-22 18:33N 47°14' W 002°15'7 7.3
2016-Aug-22 17:33N 47°18' W 002°05'0 0.4
2016-Aug-22 16:33N 47°18' W 002°05'0 0.0
2016-Aug-22 15:33N 47°18' W 002°05'0 0.0
2016-Aug-22 14:33N 47°18' W 002°05'0 0.0
2016-Aug-22 13:33N 47°18' W 002°05'0 0.0
2016-Aug-22 12:33N 47°18' W 002°05'0 0.0
2016-Aug-22 11:33N 47°18' W 002°05'0 0.0
2016-Aug-22 10:33N 47°18' W 002°05'0 0.0
2016-Aug-22 09:33N 47°18' W 002°05'0 0.0
2016-Aug-22 08:33N 47°18' W 002°05'  
2016-Aug-19 07:04N 47°18' W 002°05'0 0.0
2016-Aug-19 06:34N 47°18' W 002°05'0 0.0
2016-Aug-19 05:34N 47°18' W 002°05'0 0.0
2016-Aug-19 04:34N 47°18' W 002°05'0 0.0
2016-Aug-19 03:33N 47°18' W 002°05'0 0.0
2016-Aug-19 02:33N 47°18' W 002°05'0 0.0
2016-Aug-19 01:34N 47°18' W 002°05'0 0.0
2016-Aug-19 00:33N 47°18' W 002°05'0 0.0
2016-Aug-18 23:34N 47°18' W 002°05'0 0.0
2016-Aug-18 22:33N 47°18' W 002°05'0 0.0
2016-Aug-18 21:33N 47°18' W 002°05'0 0.0
2016-Aug-18 20:33N 47°18' W 002°05'0 0.0
2016-Aug-18 19:33N 47°18' W 002°05'1 1.3
2016-Aug-18 18:34N 47°18' W 002°07'8 7.9
2016-Aug-18 17:31N 47°13' W 002°16'9 9.1
2016-Aug-18 16:31N 47°14' W 002°30'9 9.3
2016-Aug-18 15:33N 47°15' W 002°43'1010.0
2016-Aug-18 14:34N 47°18' W 002°57'9 9.0
2016-Aug-18 13:33N 47°21' W 003°09'0 0.0
2016-Aug-18 12:09N 47°21' W 003°09'0 0.0
2016-Aug-18 11:30N 47°21' W 003°09'0 0.0
2016-Aug-18 10:27N 47°21' W 003°09'0 0.0
2016-Aug-18 09:21N 47°21' W 003°09'0 0.0
2016-Aug-18 08:30N 47°21' W 003°09'0 0.0
2016-Aug-18 07:27N 47°21' W 003°09'0 0.0
2016-Aug-18 06:33N 47°21' W 003°09'0 0.0
2016-Aug-18 05:33N 47°21' W 003°09'1 1.3
2016-Aug-18 04:33N 47°20' W 003°08'1 0.9
2016-Aug-18 03:33N 47°20' W 003°06'5 4.8
2016-Aug-18 02:34N 47°19' W 002°60'6 6.3
2016-Aug-18 01:34N 47°17' W 002°51'6 6.2
2016-Aug-18 00:34N 47°15' W 002°42'6 6.1
2016-Aug-17 23:34N 47°14' W 002°33'7 6.6
2016-Aug-17 22:33N 47°13' W 002°24'14 3.4
2016-Aug-17 18:30N 47°18' W 002°05'0 0.0
2016-Aug-17 17:09N 47°18' W 002°05'0 0.0
2016-Aug-17 16:32N 47°18' W 002°05'0 0.0
2016-Aug-17 15:33N 47°18' W 002°05'0 0.0
2016-Aug-17 14:33N 47°18' W 002°05'0 0.0
2016-Aug-17 13:33N 47°18' W 002°05'0 0.0
2016-Aug-17 12:27N 47°18' W 002°05'0 0.0
2016-Aug-17 11:33N 47°18' W 002°05'0 0.0
2016-Aug-17 10:28N 47°18' W 002°05'0 0.0
2016-Aug-17 09:33N 47°18' W 002°05'0 0.0
2016-Aug-17 08:34N 47°18' W 002°05'0 0.0
2016-Aug-17 07:34N 47°18' W 002°05'0 0.0
2016-Aug-17 06:33N 47°18' W 002°05'0 0.0
2016-Aug-17 05:33N 47°18' W 002°05'  

Dump ship's entire track history